Time;durP1;ratioP1;P1;durP2;ratioP2;P2;SDS_P1;SDS_P2;PMS_P1;PMS_P2;Temp;Humidity;BMP_temperature;BMP_pressure;BME280_temperature;BME280_humidity;BME280_pressure;Samples;Min_cycle;Max_cycle;Signal;HPM_P1;HPM_P2
2023/05/20 00:00:48;;;;;;;23.20;18.52;;;14.50;99.90;;;;;;5115353;28;20039;-71
2023/05/20 00:03:14;;;;;;;20.27;18.08;;;14.40;99.90;;;;;;5113848;28;20039;-69
2023/05/20 00:05:40;;;;;;;20.73;17.90;;;14.40;99.90;;;;;;5113330;28;20034;-69
2023/05/20 00:08:08;;;;;;;22.42;19.92;;;14.40;99.90;;;;;;5111692;28;20040;-69
2023/05/20 00:10:34;;;;;;;24.70;19.13;;;14.40;99.90;;;;;;5113289;28;20092;-69
2023/05/20 00:13:01;;;;;;;24.65;20.25;;;14.30;99.90;;;;;;5112830;28;20028;-68
2023/05/20 00:15:26;;;;;;;24.13;21.10;;;14.30;99.90;;;;;;5112938;28;20545;-68
2023/05/20 00:17:52;;;;;;;23.23;20.63;;;14.30;99.90;;;;;;5112520;28;20036;-68
2023/05/20 00:20:18;;;;;;;23.88;20.70;;;14.30;99.90;;;;;;5112928;28;20099;-70
2023/05/20 00:22:43;;;;;;;23.20;20.48;;;14.30;99.90;;;;;;5114662;28;20031;-70
2023/05/20 00:25:09;;;;;;;23.73;21.02;;;14.30;99.90;;;;;;5117103;28;20094;-70
2023/05/20 00:27:35;;;;;;;25.92;21.45;;;14.20;99.90;;;;;;5117335;28;20032;-70
2023/05/20 00:30:01;;;;;;;25.00;21.05;;;14.20;99.90;;;;;;5116467;28;20016;-70
2023/05/20 00:32:26;;;;;;;26.52;21.80;;;14.20;99.90;;;;;;5117500;28;20023;-69
2023/05/20 00:34:59;;;;;;;23.92;21.30;;;14.20;99.90;;;;;;5116613;28;20039;-70
2023/05/20 00:37:25;;;;;;;26.75;23.02;;;14.10;99.90;;;;;;5116945;28;20495;-70
2023/05/20 00:39:51;;;;;;;28.55;22.85;;;14.10;99.90;;;;;;5116519;28;20464;-70
2023/05/20 00:42:27;;;;;;;26.27;21.98;;;14.00;99.90;;;;;;5117189;28;20035;-70
2023/05/20 00:44:54;;;;;;;28.08;23.20;;;14.00;99.90;;;;;;5116446;28;20139;-70
2023/05/20 00:47:31;;;;;;;26.80;23.20;;;14.00;99.90;;;;;;5117357;28;20026;-70
2023/05/20 00:49:58;;;;;;;28.35;22.63;;;13.90;99.90;;;;;;5116663;28;20024;-70
2023/05/20 00:52:24;;;;;;;27.90;23.50;;;13.90;99.90;;;;;;5116887;28;20031;-70
2023/05/20 00:54:51;;;;;;;28.80;24.30;;;13.90;99.90;;;;;;5116518;28;20035;-73
2023/05/20 00:57:18;;;;;;;25.50;22.60;;;13.90;99.90;;;;;;5117114;28;20019;-69
2023/05/20 00:59:43;;;;;;;28.30;22.90;;;13.90;99.90;;;;;;5116796;28;20062;-70
2023/05/20 01:02:09;;;;;;;31.83;23.95;;;13.80;99.90;;;;;;5116084;28;20455;-69
2023/05/20 01:04:35;;;;;;;26.73;22.48;;;13.80;99.90;;;;;;5116287;28;20103;-70
2023/05/20 01:07:03;;;;;;;25.67;22.90;;;13.80;99.90;;;;;;5116191;28;20114;-70
2023/05/20 01:09:30;;;;;;;30.95;23.77;;;13.80;99.90;;;;;;5116701;27;20024;-70
2023/05/20 01:12:04;;;;;;;29.63;23.95;;;13.80;99.90;;;;;;5116154;28;20032;-70
2023/05/20 01:14:36;;;;;;;29.05;24.60;;;13.70;99.90;;;;;;5116322;28;20407;-69
2023/05/20 01:17:08;;;;;;;32.40;24.20;;;13.70;99.90;;;;;;5116125;28;20024;-70
2023/05/20 01:19:47;;;;;;;28.27;23.88;;;13.70;99.90;;;;;;5116515;28;20024;-69
2023/05/20 01:22:14;;;;;;;30.20;23.90;;;13.70;99.90;;;;;;5115900;28;20027;-69
2023/05/20 01:24:44;;;;;;;28.45;23.73;;;13.70;99.90;;;;;;5116159;28;20047;-69
2023/05/20 01:27:12;;;;;;;32.20;24.88;;;13.60;99.90;;;;;;5115910;28;20024;-69
2023/05/20 01:29:39;;;;;;;31.83;25.23;;;13.60;99.90;;;;;;5116169;28;20038;-69
2023/05/20 01:32:17;;;;;;;31.17;25.65;;;13.60;99.90;;;;;;5115538;28;20020;-69
2023/05/20 01:34:44;;;;;;;29.08;24.63;;;13.60;99.90;;;;;;5114830;28;20028;-69
2023/05/20 01:37:10;;;;;;;30.67;24.63;;;13.60;99.90;;;;;;5115623;27;20034;-70
2023/05/20 01:39:40;;;;;;;26.77;23.73;;;13.50;99.90;;;;;;5116092;28;20030;-69
2023/05/20 01:42:07;;;;;;;31.70;24.92;;;13.50;99.90;;;;;;5115521;28;20031;-70
2023/05/20 01:44:33;;;;;;;34.75;25.52;;;13.50;99.90;;;;;;5115567;28;20055;-70
2023/05/20 01:47:00;;;;;;;31.00;24.98;;;13.50;99.90;;;;;;5115285;28;20019;-70
2023/05/20 01:49:26;;;;;;;31.17;25.80;;;13.50;99.90;;;;;;5115813;28;20063;-70
2023/05/20 01:51:52;;;;;;;31.83;25.85;;;13.50;99.90;;;;;;5115840;28;20032;-69
2023/05/20 01:54:17;;;;;;;31.83;26.40;;;13.50;99.90;;;;;;5114787;28;20541;-69
2023/05/20 01:56:44;;;;;;;33.42;26.50;;;13.40;99.90;;;;;;5115685;28;20027;-69
2023/05/20 01:59:10;;;;;;;30.23;25.42;;;13.40;99.90;;;;;;5115225;28;20490;-70
2023/05/20 02:01:36;;;;;;;33.38;25.33;;;13.40;99.90;;;;;;5115574;28;20058;-69
2023/05/20 02:04:01;;;;;;;33.70;25.80;;;13.40;99.90;;;;;;5115256;28;20027;-70
2023/05/20 02:06:27;;;;;;;34.25;26.65;;;13.40;99.90;;;;;;5115277;28;20031;-70
2023/05/20 02:08:53;;;;;;;34.67;25.75;;;13.30;99.90;;;;;;5115226;28;20020;-69
2023/05/20 02:11:18;;;;;;;29.95;24.98;;;13.30;99.90;;;;;;5114745;28;20353;-69
2023/05/20 02:13:44;;;;;;;34.28;25.40;;;13.30;99.90;;;;;;5115480;28;20462;-69
2023/05/20 02:16:10;;;;;;;31.08;26.23;;;13.30;99.90;;;;;;5114992;28;20422;-69
2023/05/20 02:18:35;;;;;;;32.92;26.45;;;13.30;99.90;;;;;;5115345;28;20093;-70
2023/05/20 02:21:05;;;;;;;32.83;25.98;;;13.30;99.90;;;;;;5114805;28;20447;-69
2023/05/20 02:23:31;;;;;;;33.47;26.67;;;13.20;99.90;;;;;;5115098;28;20069;-69
2023/05/20 02:25:56;;;;;;;32.40;26.27;;;13.20;99.90;;;;;;5114609;28;20506;-72
2023/05/20 02:28:22;;;;;;;34.38;26.73;;;13.20;99.90;;;;;;5115164;28;20094;-69
2023/05/20 02:30:50;;;;;;;30.55;26.42;;;13.10;99.90;;;;;;5114544;28;20043;-69
2023/05/20 02:33:16;;;;;;;36.80;26.60;;;13.10;99.90;;;;;;5114437;28;20043;-69
2023/05/20 02:35:41;;;;;;;30.83;25.92;;;13.10;99.90;;;;;;5114890;28;20123;-69
2023/05/20 02:38:07;;;;;;;33.75;26.52;;;13.10;99.90;;;;;;5114422;28;20376;-69
2023/05/20 02:40:33;;;;;;;38.50;27.42;;;13.10;99.90;;;;;;5113554;28;20019;-69
2023/05/20 02:43:00;;;;;;;36.08;28.20;;;13.10;99.90;;;;;;5114407;28;20035;-70
2023/05/20 02:45:26;;;;;;;35.97;28.05;;;13.00;99.90;;;;;;5114159;28;20109;-69
2023/05/20 02:47:52;;;;;;;34.90;27.83;;;13.00;99.90;;;;;;5114735;28;20511;-69
2023/05/20 02:50:17;;;;;;;35.38;27.08;;;13.00;99.90;;;;;;5114202;28;20088;-69
2023/05/20 02:52:44;;;;;;;34.22;27.67;;;12.90;99.90;;;;;;5114526;28;20396;-69
2023/05/20 02:55:10;;;;;;;36.30;28.55;;;12.90;99.90;;;;;;5114075;28;20032;-68
2023/05/20 02:57:39;;;;;;;36.10;27.95;;;12.90;99.90;;;;;;5114144;28;20031;-69
2023/05/20 03:00:07;;;;;;;37.63;26.95;;;12.90;99.90;;;;;;5113878;28;20380;-68
2023/05/20 03:02:33;;;;;;;37.03;29.02;;;12.90;99.90;;;;;;5114317;28;20085;-68
2023/05/20 03:04:59;;;;;;;35.25;28.27;;;12.80;99.90;;;;;;5114027;28;20452;-73
2023/05/20 03:07:25;;;;;;;34.45;26.92;;;12.80;99.90;;;;;;5114533;28;20099;-69
2023/05/20 03:09:50;;;;;;;38.85;29.80;;;12.80;99.90;;;;;;5113944;28;20426;-69
2023/05/20 03:12:16;;;;;;;37.67;29.33;;;12.80;99.90;;;;;;5113682;28;20558;-69
2023/05/20 03:14:42;;;;;;;36.92;28.33;;;12.80;99.90;;;;;;5114130;28;20031;-69
2023/05/20 03:17:08;;;;;;;37.60;28.33;;;12.80;99.90;;;;;;5113639;28;20022;-69
2023/05/20 03:19:34;;;;;;;34.78;27.50;;;12.80;99.90;;;;;;5114065;27;20023;-69
2023/05/20 03:22:00;;;;;;;38.60;28.30;;;12.80;99.90;;;;;;5113960;28;20030;-75
2023/05/20 03:24:26;;;;;;;40.53;30.02;;;12.80;99.90;;;;;;5113967;28;20402;-69
2023/05/20 03:26:52;;;;;;;35.47;28.65;;;12.70;99.90;;;;;;5114194;28;20144;-69
2023/05/20 03:29:17;;;;;;;40.30;28.95;;;12.80;99.90;;;;;;5113433;28;20024;-69
2023/05/20 03:31:43;;;;;;;38.53;29.02;;;12.70;99.90;;;;;;5113776;28;20034;-70
2023/05/20 03:34:09;;;;;;;37.45;29.95;;;12.70;99.90;;;;;;5113369;28;20098;-68
2023/05/20 03:36:34;;;;;;;36.72;27.75;;;12.70;99.90;;;;;;5113496;28;20464;-68
2023/05/20 03:39:03;;;;;;;40.95;29.20;;;12.70;99.90;;;;;;5113671;28;20031;-69
2023/05/20 03:41:28;;;;;;;37.80;27.75;;;12.70;99.90;;;;;;5113652;28;20047;-69
2023/05/20 03:43:54;;;;;;;39.33;29.42;;;12.70;99.90;;;;;;5113328;28;20444;-69
2023/05/20 03:46:20;;;;;;;40.67;29.88;;;12.70;99.90;;;;;;5113395;28;20040;-69
2023/05/20 03:48:45;;;;;;;39.92;30.23;;;12.70;99.90;;;;;;5113576;28;20036;-69
2023/05/20 03:51:11;;;;;;;41.15;29.70;;;12.70;99.90;;;;;;5113125;28;20027;-69
2023/05/20 03:53:36;;;;;;;37.80;28.33;;;12.70;99.90;;;;;;5113165;28;20026;-69
2023/05/20 03:56:02;;;;;;;38.47;28.90;;;12.70;99.90;;;;;;5113320;28;20030;-74
2023/05/20 03:58:28;;;;;;;37.30;29.10;;;12.70;99.90;;;;;;5112718;28;20028;-69
2023/05/20 04:00:54;;;;;;;39.50;28.27;;;12.80;99.90;;;;;;5113117;28;20027;-69
2023/05/20 04:03:21;;;;;;;35.20;28.40;;;12.80;99.90;;;;;;5112654;28;20031;-69
2023/05/20 04:05:47;;;;;;;35.90;28.40;;;12.80;99.90;;;;;;5113306;28;20034;-69
2023/05/20 04:08:13;;;;;;;38.53;27.77;;;12.90;99.90;;;;;;5112919;28;20472;-68
2023/05/20 04:10:41;;;;;;;34.92;26.52;;;12.90;99.90;;;;;;5113456;28;20116;-69
2023/05/20 04:13:07;;;;;;;32.42;25.88;;;12.90;99.90;;;;;;5112777;28;20168;-69
2023/05/20 04:15:35;;;;;;;36.35;27.85;;;13.00;99.90;;;;;;5113031;28;20102;-68
2023/05/20 04:18:01;;;;;;;36.25;27.48;;;13.00;99.90;;;;;;5113017;28;20461;-68
2023/05/20 04:20:27;;;;;;;34.20;25.70;;;13.10;99.90;;;;;;5112762;28;20031;-68
2023/05/20 04:22:53;;;;;;;37.65;26.35;;;13.20;99.90;;;;;;5112470;28;20556;-69
2023/05/20 04:25:19;;;;;;;35.17;26.55;;;13.20;99.90;;;;;;5112534;28;20089;-70
2023/05/20 04:27:45;;;;;;;34.88;26.55;;;13.30;99.90;;;;;;5113290;28;20024;-70
2023/05/20 04:30:11;;;;;;;36.97;27.50;;;13.30;99.90;;;;;;5112728;28;20019;-68
2023/05/20 04:32:37;;;;;;;35.25;26.23;;;13.40;99.90;;;;;;5113091;28;20038;-69
2023/05/20 04:35:07;;;;;;;35.50;25.65;;;13.40;99.90;;;;;;5113013;28;20035;-68
2023/05/20 04:37:33;;;;;;;33.40;25.70;;;13.40;99.90;;;;;;5113166;28;20024;-68
2023/05/20 04:40:03;;;;;;;37.05;25.45;;;13.40;99.90;;;;;;5112864;28;20024;-68
2023/05/20 04:42:29;;;;;;;32.00;24.42;;;13.40;99.90;;;;;;5112437;28;20111;-68
2023/05/20 04:44:54;;;;;;;33.47;25.67;;;13.40;99.90;;;;;;5112443;28;20135;-68
2023/05/20 04:47:20;;;;;;;31.73;25.88;;;13.40;99.90;;;;;;5112593;28;20023;-69
2023/05/20 04:49:45;;;;;;;33.33;25.08;;;13.40;99.90;;;;;;5112857;28;20028;-68
2023/05/20 04:52:11;;;;;;;37.92;25.95;;;13.40;99.90;;;;;;5112692;28;20444;-69
2023/05/20 04:54:37;;;;;;;32.08;25.13;;;13.60;99.90;;;;;;5112835;28;20077;-68
2023/05/20 04:57:03;;;;;;;31.25;24.45;;;13.60;99.90;;;;;;5112852;28;20028;-69
2023/05/20 04:59:28;;;;;;;34.25;24.75;;;13.80;99.90;;;;;;5112481;28;20028;-70
2023/05/20 05:01:54;;;;;;;31.60;23.90;;;13.90;99.90;;;;;;5112710;28;20026;-70
2023/05/20 05:04:20;;;;;;;39.17;24.08;;;14.00;99.90;;;;;;5112373;28;20023;-70
2023/05/20 05:06:47;;;;;;;31.02;23.27;;;14.10;99.90;;;;;;5112790;28;20356;-70
2023/05/20 05:09:13;;;;;;;30.88;22.70;;;14.20;99.90;;;;;;5114504;28;20027;-70
2023/05/20 05:11:38;;;;;;;33.88;22.27;;;14.30;99.90;;;;;;5116318;28;20028;-70
2023/05/20 05:14:04;;;;;;;28.77;22.00;;;14.40;99.90;;;;;;5116628;27;20456;-70
2023/05/20 05:16:30;;;;;;;30.45;23.25;;;14.40;99.90;;;;;;5116096;28;20046;-70
2023/05/20 05:18:55;;;;;;;30.92;22.95;;;14.40;99.90;;;;;;5116464;28;20375;-70
2023/05/20 05:21:21;;;;;;;31.98;23.08;;;14.30;99.90;;;;;;5115725;28;20072;-70
2023/05/20 05:23:47;;;;;;;31.00;22.45;;;14.30;99.90;;;;;;5116519;28;20111;-69
2023/05/20 05:26:12;;;;;;;32.80;22.23;;;14.50;99.90;;;;;;5115924;28;20413;-69
2023/05/20 05:28:42;;;;;;;27.52;22.60;;;14.60;99.90;;;;;;5116077;28;20042;-69
2023/05/20 05:31:07;;;;;;;32.53;22.08;;;14.60;99.90;;;;;;5116146;28;20050;-69
2023/05/20 05:33:33;;;;;;;28.35;21.45;;;14.60;99.90;;;;;;5115669;28;20483;-69
2023/05/20 05:36:00;;;;;;;30.38;22.67;;;14.90;99.90;;;;;;5116335;28;20027;-70
2023/05/20 05:38:26;;;;;;;27.00;19.90;;;15.40;99.90;;;;;;5115621;27;20039;-70
2023/05/20 05:40:52;;;;;;;24.02;20.00;;;16.10;99.90;;;;;;5115960;28;20024;-69
2023/05/20 05:43:18;;;;;;;26.73;19.55;;;16.50;99.90;;;;;;5115272;28;20039;-69
2023/05/20 05:45:43;;;;;;;22.63;18.25;;;17.20;99.90;;;;;;5115838;28;20052;-69
2023/05/20 05:48:10;;;;;;;22.27;17.33;;;17.90;99.90;;;;;;5115742;28;20051;-69
2023/05/20 05:50:35;;;;;;;22.33;17.95;;;18.60;99.20;;;;;;5115322;28;20051;-69
2023/05/20 05:53:01;;;;;;;17.98;15.95;;;19.30;95.50;;;;;;5115672;28;20468;-70
2023/05/20 05:55:28;;;;;;;20.23;16.83;;;19.90;92.90;;;;;;5114749;28;20483;-69
2023/05/20 05:57:54;;;;;;;19.63;15.85;;;20.40;91.20;;;;;;5115766;28;20345;-69
2023/05/20 06:00:19;;;;;;;20.73;16.35;;;21.00;90.30;;;;;;5115175;28;20110;-69
2023/05/20 06:02:46;;;;;;;17.10;14.57;;;21.50;85.30;;;;;;5115775;28;20031;-69
2023/05/20 06:05:12;;;;;;;19.08;16.02;;;22.00;80.50;;;;;;5115952;28;20038;-74
2023/05/20 06:07:37;;;;;;;19.77;15.00;;;22.70;78.30;;;;;;5116841;28;20031;-70
2023/05/20 06:10:03;;;;;;;18.58;14.82;;;23.10;75.70;;;;;;5117285;28;20486;-69
2023/05/20 06:12:29;;;;;;;18.73;15.38;;;23.30;73.30;;;;;;5116899;28;20098;-69
2023/05/20 06:14:55;;;;;;;20.90;15.18;;;23.00;72.00;;;;;;5116455;28;20027;-68
2023/05/20 06:17:20;;;;;;;16.90;15.10;;;23.20;71.80;;;;;;5113494;28;20027;-69
2023/05/20 06:19:46;;;;;;;15.98;13.70;;;23.40;70.30;;;;;;5114607;28;20031;-69
2023/05/20 06:22:11;;;;;;;16.75;13.52;;;23.80;70.70;;;;;;5115003;28;20460;-69
2023/05/20 06:24:37;;;;;;;17.88;14.05;;;23.80;67.90;;;;;;5113458;28;20055;-69
2023/05/20 06:27:03;;;;;;;19.73;15.38;;;23.80;67.60;;;;;;5115147;28;20429;-69
2023/05/20 06:29:28;;;;;;;17.48;14.65;;;24.20;67.30;;;;;;5114674;28;20024;-69
2023/05/20 06:31:54;;;;;;;17.73;14.70;;;24.60;66.20;;;;;;5115005;28;20103;-69
2023/05/20 06:34:19;;;;;;;15.63;13.98;;;24.80;64.70;;;;;;5114482;28;20361;-69
2023/05/20 06:36:45;;;;;;;18.05;14.10;;;24.90;64.40;;;;;;5114687;28;20032;-69
2023/05/20 06:39:11;;;;;;;17.63;13.75;;;25.30;62.80;;;;;;5114813;28;20047;-69
2023/05/20 06:41:39;;;;;;;14.57;13.07;;;25.60;62.30;;;;;;5114366;28;20030;-69
2023/05/20 06:44:06;;;;;;;16.50;14.00;;;25.60;62.50;;;;;;5114810;28;20027;-69
2023/05/20 06:46:32;;;;;;;19.05;13.80;;;25.60;60.40;;;;;;5114479;28;20047;-69
2023/05/20 06:48:58;;;;;;;15.02;13.43;;;26.00;61.00;;;;;;5114562;28;20380;-69
2023/05/20 06:51:23;;;;;;;15.85;14.07;;;26.00;59.10;;;;;;5113920;28;20027;-69
2023/05/20 06:53:49;;;;;;;15.00;13.38;;;25.50;57.90;;;;;;5114272;28;20041;-69
2023/05/20 06:56:15;;;;;;;19.55;13.85;;;24.90;60.00;;;;;;5114432;28;20114;-69
2023/05/20 06:58:40;;;;;;;17.08;13.70;;;24.20;62.50;;;;;;5114044;28;20529;-69
2023/05/20 07:01:06;;;;;;;16.77;13.68;;;23.60;64.00;;;;;;5114408;28;20073;-68
2023/05/20 07:03:31;;;;;;;16.20;14.48;;;23.30;65.70;;;;;;5114288;28;20415;-68
2023/05/20 07:05:57;;;;;;;20.05;15.68;;;23.20;66.00;;;;;;5113883;28;20031;-68
2023/05/20 07:08:23;;;;;;;18.52;15.98;;;22.90;67.00;;;;;;5113490;28;20032;-69
2023/05/20 07:10:49;;;;;;;19.77;16.42;;;22.30;68.80;;;;;;5113769;28;20024;-69
2023/05/20 07:13:14;;;;;;;19.33;16.50;;;21.80;70.40;;;;;;5114108;28;20034;-69
2023/05/20 07:15:40;;;;;;;18.13;15.65;;;21.50;72.60;;;;;;5114037;28;20464;-69
2023/05/20 07:18:06;;;;;;;21.17;16.17;;;21.10;74.60;;;;;;5113807;28;20112;-70
2023/05/20 07:20:31;;;;;;;20.10;16.55;;;20.90;76.70;;;;;;5113591;28;20023;-70
2023/05/20 07:22:57;;;;;;;19.17;15.38;;;20.80;77.60;;;;;;5113983;28;20138;-70
2023/05/20 07:25:23;;;;;;;19.52;15.68;;;21.20;79.40;;;;;;5113619;28;20081;-70
2023/05/20 07:27:48;;;;;;;19.77;15.18;;;22.10;77.30;;;;;;5113863;28;20030;-70
2023/05/20 07:30:14;;;;;;;16.48;13.88;;;22.80;74.00;;;;;;5113542;28;20487;-69
2023/05/20 07:32:39;;;;;;;17.20;14.65;;;23.50;71.20;;;;;;5112969;28;20027;-69
2023/05/20 07:35:06;;;;;;;18.50;13.63;;;23.80;69.30;;;;;;5113851;28;20181;-70
2023/05/20 07:37:31;;;;;;;23.23;16.00;;;24.40;68.00;;;;;;5113309;28;20023;-70
2023/05/20 07:39:57;;;;;;;18.75;13.70;;;25.20;68.20;;;;;;5113416;28;20024;-70
2023/05/20 07:42:22;;;;;;;15.52;12.30;;;25.70;64.80;;;;;;5113508;28;20521;-71
2023/05/20 07:44:48;;;;;;;14.23;12.32;;;26.10;62.90;;;;;;5111618;28;20051;-71
2023/05/20 07:47:14;;;;;;;16.65;13.85;;;26.00;62.40;;;;;;5113158;28;20561;-70
2023/05/20 07:49:39;;;;;;;15.25;12.90;;;25.80;61.00;;;;;;5113096;28;20028;-70
2023/05/20 07:52:05;;;;;;;16.55;12.50;;;26.00;62.30;;;;;;5113541;28;20027;-70
2023/05/20 07:54:31;;;;;;;18.02;13.60;;;26.10;61.10;;;;;;5112971;28;20050;-70
2023/05/20 07:56:57;;;;;;;14.32;12.25;;;26.10;60.30;;;;;;5113338;28;20020;-70
2023/05/20 07:59:23;;;;;;;16.33;13.35;;;26.10;61.60;;;;;;5113029;28;20477;-70
2023/05/20 08:01:49;;;;;;;17.38;12.38;;;25.90;61.40;;;;;;5112216;28;20375;-69
2023/05/20 08:04:14;;;;;;;17.85;12.25;;;25.70;61.50;;;;;;5112944;28;20027;-70
2023/05/20 08:06:40;;;;;;;13.50;10.88;;;25.60;62.00;;;;;;5112823;28;20030;-70
2023/05/20 08:09:06;;;;;;;15.43;11.50;;;25.60;61.90;;;;;;5113230;28;20042;-69
2023/05/20 08:11:32;;;;;;;15.43;12.35;;;25.90;63.30;;;;;;5112747;28;20024;-70
2023/05/20 08:13:58;;;;;;;16.17;11.77;;;26.00;62.40;;;;;;5112292;28;20038;-70
2023/05/20 08:16:23;;;;;;;16.55;11.77;;;25.90;61.60;;;;;;5112759;28;20543;-71
2023/05/20 08:18:49;;;;;;;15.52;11.85;;;25.90;61.50;;;;;;5113118;28;20020;-70
2023/05/20 08:21:14;;;;;;;18.13;13.32;;;25.60;62.60;;;;;;5112741;28;20062;-70
2023/05/20 08:23:40;;;;;;;15.35;12.40;;;25.50;61.70;;;;;;5112891;28;20055;-69
2023/05/20 08:26:06;;;;;;;17.65;12.00;;;25.30;62.80;;;;;;5112926;28;20371;-69
2023/05/20 08:28:32;;;;;;;14.13;11.55;;;25.30;63.70;;;;;;5112638;28;20024;-70
2023/05/20 08:31:00;;;;;;;12.13;10.15;;;25.20;65.50;;;;;;5113284;28;20028;-69
2023/05/20 08:33:26;;;;;;;15.73;10.75;;;25.20;64.80;;;;;;5112441;28;20103;-69
2023/05/20 08:35:51;;;;;;;14.13;10.95;;;25.10;64.20;;;;;;5112903;28;20053;-69
2023/05/20 08:38:17;;;;;;;13.02;11.05;;;25.00;64.00;;;;;;5112827;28;20421;-69
2023/05/20 08:40:43;;;;;;;13.70;10.48;;;24.60;64.70;;;;;;5112095;28;20422;-69
2023/05/20 08:43:09;;;;;;;16.13;10.45;;;24.60;65.90;;;;;;5113327;28;20027;-69
2023/05/20 08:45:37;;;;;;;13.55;10.15;;;24.50;65.60;;;;;;5116268;28;20122;-69
2023/05/20 08:48:04;;;;;;;15.52;10.80;;;24.30;66.10;;;;;;5117014;28;20027;-69
2023/05/20 08:50:30;;;;;;;14.68;11.02;;;24.10;67.10;;;;;;5116369;28;20020;-69
2023/05/20 08:52:56;;;;;;;12.20;10.65;;;23.80;68.30;;;;;;5116731;28;20096;-69
2023/05/20 08:55:28;;;;;;;15.95;10.13;;;23.90;68.60;;;;;;5116712;27;20028;-69
2023/05/20 08:57:54;;;;;;;12.68;10.88;;;24.10;69.10;;;;;;5117053;27;20035;-69
2023/05/20 09:00:25;;;;;;;11.23;10.02;;;24.00;69.40;;;;;;5118235;28;20039;-69
2023/05/20 09:02:52;;;;;;;15.75;10.82;;;23.90;69.80;;;;;;5118054;28;20070;-69
2023/05/20 09:05:17;;;;;;;12.90;10.45;;;23.90;69.90;;;;;;5116519;28;20034;-70
2023/05/20 09:07:43;;;;;;;14.00;11.45;;;23.80;70.80;;;;;;5116180;28;20020;-70
2023/05/20 09:10:09;;;;;;;15.20;11.18;;;23.90;70.50;;;;;;5115787;28;20068;-70
2023/05/20 09:12:37;;;;;;;16.55;11.43;;;24.00;69.80;;;;;;5116075;28;20024;-69
2023/05/20 09:15:03;;;;;;;12.50;10.90;;;23.90;70.40;;;;;;5116522;28;20063;-70
2023/05/20 09:17:29;;;;;;;14.82;11.27;;;24.00;71.00;;;;;;5115952;28;20095;-69
2023/05/20 09:19:55;;;;;;;11.98;9.77;;;23.90;70.10;;;;;;5116292;28;20515;-69
2023/05/20 09:22:25;;;;;;;14.35;10.40;;;23.80;70.10;;;;;;5116191;28;20455;-69
2023/05/20 09:24:51;;;;;;;;;;;23.60;70.80;;;;;;5116386;28;20023;-69
2023/05/20 09:27:18;;;;;;;13.30;10.77;;;23.50;71.10;;;;;;5116007;28;19929;-69
2023/05/20 09:29:47;;;;;;;15.05;10.07;;;23.50;72.50;;;;;;5115288;28;20475;-70
2023/05/20 09:32:13;;;;;;;14.38;11.20;;;23.50;73.40;;;;;;5116076;28;20084;-70
2023/05/20 09:34:41;;;;;;;15.70;11.55;;;23.60;74.00;;;;;;5115628;28;20031;-70
2023/05/20 09:37:07;;;;;;;13.82;11.07;;;23.70;74.30;;;;;;5115864;28;20452;-70
2023/05/20 09:39:44;;;;;;;13.68;10.20;;;23.80;73.30;;;;;;5115296;28;20081;-70
2023/05/20 09:42:34;;;;;;;13.10;10.38;;;23.70;72.40;;;;;;5115893;28;20038;-70
2023/05/20 09:45:03;;;;;;;14.35;9.55;;;23.70;72.70;;;;;;5115901;28;20441;-70
2023/05/20 09:47:30;;;;;;;13.75;10.45;;;23.70;72.70;;;;;;5115609;28;20108;-75
2023/05/20 09:49:56;;;;;;;10.90;9.13;;;23.60;73.20;;;;;;5115516;28;20531;-70
2023/05/20 09:52:21;;;;;;;12.55;8.52;;;23.60;73.40;;;;;;5115719;28;20103;-70
2023/05/20 09:54:49;;;;;;;16.98;11.18;;;23.70;74.60;;;;;;5113685;28;20119;-70
2023/05/20 09:57:15;;;;;;;11.93;9.63;;;23.60;73.20;;;;;;5115261;28;20019;-70
2023/05/20 09:59:42;;;;;;;15.52;9.70;;;23.50;74.70;;;;;;5114899;28;20491;-70
2023/05/20 10:02:08;;;;;;;12.73;9.63;;;23.60;75.20;;;;;;5115786;28;20024;-70
2023/05/20 10:04:36;;;;;;;12.02;8.98;;;23.60;75.00;;;;;;5115025;28;20068;-70
2023/05/20 10:07:39;;;;;;;9.90;7.75;;;23.60;75.10;;;;;;5115365;28;20531;-70
2023/05/20 10:10:14;;;;;;;10.82;8.90;;;23.70;75.50;;;;;;5115658;28;20034;-70
2023/05/20 10:12:52;;;;;;;9.70;8.65;;;23.80;74.50;;;;;;5114352;28;20110;-70
2023/05/20 10:15:39;;;;;;;11.73;8.52;;;23.80;73.80;;;;;;5115067;28;20409;-70
2023/05/20 10:18:29;;;;;;;10.65;8.98;;;23.80;74.30;;;;;;5115187;28;20020;-69
2023/05/20 10:20:55;;;;;;;10.93;9.30;;;23.70;73.80;;;;;;5114815;28;20069;-69
2023/05/20 10:23:27;;;;;;;9.70;8.45;;;23.60;72.80;;;;;;5114887;28;20032;-70
2023/05/20 10:25:55;;;;;;;9.48;8.48;;;23.60;74.60;;;;;;5114871;28;20020;-69
2023/05/20 10:28:31;;;;;;;9.65;8.68;;;23.70;73.50;;;;;;5115198;28;20031;-68
2023/05/20 10:30:58;;;;;;;14.43;9.05;;;23.70;73.50;;;;;;5115020;28;20030;-69
2023/05/20 10:33:27;;;;;;;12.80;9.25;;;23.70;74.10;;;;;;5114961;28;20529;-70
2023/05/20 10:35:56;;;;;;;10.85;9.75;;;23.80;75.00;;;;;;5114833;28;20114;-70
2023/05/20 10:38:22;;;;;;;11.85;9.13;;;23.80;74.00;;;;;;5114774;28;20032;-69
2023/05/20 10:40:48;;;;;;;12.52;9.55;;;23.70;74.60;;;;;;5114526;28;20027;-70
2023/05/20 10:43:33;;;;;;;11.68;9.13;;;23.70;75.00;;;;;;5113689;28;20555;-69
2023/05/20 10:45:58;;;;;;;14.10;10.00;;;23.70;75.50;;;;;;5114675;28;20048;-69
2023/05/20 10:48:26;;;;;;;11.48;8.73;;;23.60;74.30;;;;;;5114833;28;20030;-70
2023/05/20 10:50:56;;;;;;;14.93;9.98;;;23.70;75.90;;;;;;5112811;28;20070;-69
2023/05/20 10:53:23;;;;;;;10.03;8.70;;;23.80;77.00;;;;;;5114537;28;20035;-68
2023/05/20 10:55:51;;;;;;;12.90;9.60;;;23.90;76.10;;;;;;5114028;28;20088;-69
2023/05/20 10:58:18;;;;;;;10.18;8.20;;;23.90;74.40;;;;;;5114323;28;20020;-69
2023/05/20 11:00:44;;;;;;;10.70;7.72;;;23.90;75.30;;;;;;5113983;28;20034;-69
2023/05/20 11:03:11;;;;;;;10.18;9.07;;;24.00;76.40;;;;;;5112866;28;20028;-68
2023/05/20 11:05:38;;;;;;;11.25;8.95;;;24.20;76.60;;;;;;5114359;28;20026;-70
2023/05/20 11:08:07;;;;;;;11.23;9.05;;;24.10;75.00;;;;;;5113704;28;20347;-69
2023/05/20 11:10:33;;;;;;;13.05;9.63;;;24.00;75.10;;;;;;5114060;28;20443;-69
2023/05/20 11:13:00;;;;;;;10.10;8.98;;;23.90;75.30;;;;;;5113560;28;20026;-69
2023/05/20 11:15:26;;;;;;;13.98;10.02;;;23.90;76.00;;;;;;5113797;28;20455;-69
2023/05/20 11:18:00;;;;;;;9.60;8.27;;;24.00;76.80;;;;;;5113278;28;20103;-69
2023/05/20 11:20:26;;;;;;;11.63;8.45;;;24.10;76.80;;;;;;5114064;28;20337;-69
2023/05/20 11:22:52;;;;;;;10.85;7.63;;;24.20;75.50;;;;;;5113452;28;20027;-69
2023/05/20 11:25:19;;;;;;;10.00;8.25;;;24.30;74.20;;;;;;5113775;28;20072;-68
2023/05/20 11:27:45;;;;;;;8.88;8.00;;;24.20;73.10;;;;;;5113458;28;20020;-71
2023/05/20 11:30:15;;;;;;;9.60;8.15;;;24.30;73.40;;;;;;5113535;28;20023;-69
2023/05/20 11:32:43;;;;;;;11.60;8.87;;;24.40;73.80;;;;;;5113209;28;20078;-70
2023/05/20 11:35:22;;;;;;;14.55;8.23;;;24.50;75.10;;;;;;5113641;28;20067;-69
2023/05/20 11:38:18;;;;;;;9.55;8.55;;;24.60;73.60;;;;;;5113364;28;20020;-69
2023/05/20 11:40:45;;;;;;;9.65;8.18;;;24.60;73.50;;;;;;5100219;28;20039;-70
2023/05/20 11:43:12;;;;;;;9.05;7.65;;;24.50;72.30;;;;;;5113672;28;20106;-70
2023/05/20 11:45:43;;;;;;;8.02;7.20;;;24.50;73.00;;;;;;5112736;28;20058;-71
2023/05/20 11:48:10;;;;;;;12.02;8.07;;;24.60;72.60;;;;;;5113916;28;20364;-69
2023/05/20 11:50:43;;;;;;;9.70;7.78;;;24.70;71.80;;;;;;5113101;28;20067;-69
2023/05/20 11:53:10;;;;;;;9.02;8.13;;;24.70;72.70;;;;;;5113260;28;20032;-69
2023/05/20 11:55:49;;;;;;;10.13;7.38;;;24.80;73.50;;;;;;5113513;28;20055;-69
2023/05/20 11:58:19;;;;;;;8.98;7.57;;;24.80;70.60;;;;;;5113276;28;20042;-69
2023/05/20 12:00:45;;;;;;;10.47;7.63;;;24.70;70.30;;;;;;5112985;28;20034;-69
2023/05/20 12:03:11;;;;;;;9.10;7.03;;;24.70;70.50;;;;;;5113250;28;20252;-69
2023/05/20 12:05:37;;;;;;;9.10;8.13;;;24.60;71.60;;;;;;5113209;28;20034;-69
2023/05/20 12:08:04;;;;;;;8.77;7.40;;;24.60;72.00;;;;;;5113084;28;20380;-68
2023/05/20 12:10:30;;;;;;;10.10;7.20;;;24.70;71.70;;;;;;5113302;28;20023;-70
2023/05/20 12:12:55;;;;;;;9.43;8.00;;;24.70;71.30;;;;;;5112682;28;20472;-68
2023/05/20 12:15:21;;;;;;;16.20;8.23;;;24.70;71.70;;;;;;5112799;28;20032;-68
2023/05/20 12:17:51;;;;;;;8.18;7.38;;;24.50;71.00;;;;;;5112184;28;20320;-69
2023/05/20 12:20:20;;;;;;;10.43;7.70;;;24.40;71.40;;;;;;5112868;28;20448;-68
2023/05/20 12:22:46;;;;;;;12.85;7.30;;;24.40;71.60;;;;;;5112252;28;20383;-68
2023/05/20 12:25:14;;;;;;;9.10;7.20;;;24.30;71.80;;;;;;5092781;28;20028;-68
2023/05/20 12:27:40;;;;;;;7.82;6.55;;;24.30;71.80;;;;;;5092791;28;20028;-69
2023/05/20 12:30:08;;;;;;;10.45;7.30;;;24.30;71.70;;;;;;5092667;28;20077;-70